URKK Airport Information

Runway Information
Runway 05L Length 7218 ft width 160 ft
Elevation 107 ft Threshold 0 ft Heading 53
Runway 23R Length 7218 ft Width 160 ft
Elevation 111 ft Threshold 0 ft Heading 233
Runway 05R Length 9835 ft width 145 ft
Elevation 111 ft Threshold 0 ft Heading 53
Runway 23L Length 9835 ft Width 145 ft
Elevation 118 ft Threshold 0 ft Heading 233
Airport Frequencies
Type APP Name KRASNODAR Frequency 129.6 MHZ
Type ATIS Name KRASNODRA Frequency 121.8 MHZ
Type GND Name KRASNODAR Frequency 119 MHZ
Type RDR Name KRASNODAR Frequency 121.3 MHZ
Type TWR Name KRASNODAR Frequency 118.2 MHZ
Airport Navaids
Type NDB Name Krasnodar Frequency 750 KHZ
Type NDB Name Krasnodar Frequency 493 KHZ
Type NDB Name Krasnodar Frequency 493 KHZ
Type NDB Name Krasnodar Frequency 750 KHZ
Airport Weather Information & NOTAM
ADDS - METARS form results

(0813 UTC 21 April 2019)
Data provider http://aviationweather.gov/metar/data/
 
METAR text: URKK 210800Z 07011G16MPS 9999 FEW049 12/00 Q1018 R05R/CLRD70 TEMPO 06008G18MPS RMK QFE760
Conditions at: URKK (KRASNODAR , RU) observed 0800 UTC 21 April 2019
Temperature: 12.0°C (54°F)
Dewpoint: 0.0°C (32°F) [RH = 44%]
Pressure (altimeter): 30.06 inches Hg (1018.0 mb)
Winds: from the ENE (70 degrees) at 24 MPH (21 knots; 10.8 m/s)
gusting to 36 MPH (31 knots; 15.9 m/s)
Visibility: 6 or more miles (10+ km)
Ceiling: at least 12,000 feet AGL
Clouds: few clouds at 4900 feet AGL
Weather: no significant weather observed at this time

METAR text: URKK 210730Z 08011G16MPS 9999 FEW045 12/01 Q1018 R05R/CLRD70 TEMPO 06008G18MPS RMK QFE760
Conditions at: URKK (KRASNODAR , RU) observed 0730 UTC 21 April 2019
Temperature: 12.0°C (54°F)
Dewpoint: 1.0°C (34°F) [RH = 47%]
Pressure (altimeter): 30.06 inches Hg (1018.0 mb)
Winds: from the E (80 degrees) at 24 MPH (21 knots; 10.8 m/s)
gusting to 36 MPH (31 knots; 15.9 m/s)
Visibility: 6 or more miles (10+ km)
Ceiling: at least 12,000 feet AGL
Clouds: few clouds at 4500 feet AGL
Weather: no significant weather observed at this time

Forecast for: AMD
Text: TAF AMD URKK 210631Z 2106/2206 07009G18MPS 9999 SCT030
Forecast period: 0600 to 1800 UTC 21 April 2019
Forecast type: FROM: standard forecast or significant change
Winds: from the ENE (70 degrees) at 20 MPH (17 knots; 8.7 m/s)
gusting to 40 MPH (35 knots; 18.0 m/s)
Visibility: 6 or more miles 10+ km)
Ceiling: at least 12,000 feet AGL
Clouds: scattered clouds at 3000 feet AGL
Weather: no significant weather forecast for this period
Text: BECMG 2118/2120 04006G12MPS
Forecast period: 1800 UTC 21 April 2019 to 0600 UTC 22 April 2019
Forecast type: BECOMING: Conditions expected to become as follows by 2000 UTC 21 April 2019
Winds: from the NE (40 degrees) at 14 MPH (12 knots; 6.2 m/s)
gusting to 26 MPH (23 knots; 11.8 m/s)
Visibility: 6 or more miles 10+ km)
Ceiling: at least 12,000 feet AGL
Clouds: scattered clouds at 3000 feet AGL
Weather: no significant weather forecast for this period